Aviation Digital Data Service (ADDS)

Output produced by METARs form (1139 UTC 21 April 2021)
found at http://www.aviationweather.gov/metar/data/
 
METAR text: EPLL 211130Z 26015KT 9999 SCT049 15/03 Q1010
Conditions at: EPLL (LODZ/LUBLINEK , PL) observed 1130 UTC 21 April 2021
Temperature: 15.0°C (59°F)
Dewpoint: 3.0°C (37°F) [RH = 44%]
Pressure (altimeter): 29.82 inches Hg (1010.0 mb)
Winds: from the W (260 degrees) at 17 MPH (15 knots; 7.7 m/s)
Visibility: 6 or more miles (10+ km)
Ceiling: at least 12,000 feet AGL
Clouds: scattered clouds at 4900 feet AGL
Weather: no significant weather observed at this time

METAR text: EPLL 211100Z 26014KT 230V290 9999 SCT044 16/03 Q1011
Conditions at: EPLL (LODZ/LUBLINEK , PL) observed 1100 UTC 21 April 2021
Temperature: 16.0°C (61°F)
Dewpoint: 3.0°C (37°F) [RH = 42%]
Pressure (altimeter): 29.85 inches Hg (1011.0 mb)
Winds: from the W (260 degrees) at 16 MPH (14 knots; 7.2 m/s)
Visibility: 6 or more miles (10+ km)
Ceiling: at least 12,000 feet AGL
Clouds: scattered clouds at 4400 feet AGL
Weather: no significant weather observed at this time

Forecast for: EPLL (LODZ/LUBLINEK , PL)
Text: TAF EPLL 211130Z 2112/2212 26010KT CAVOK
Forecast period: 1200 UTC 21 April 2021 to 1200 UTC 22 April 2021
Forecast type: FROM: standard forecast or significant change
Winds: from the W (260 degrees) at 12 MPH (10 knots; 5.1 m/s)
Visibility: 6 or more miles (10+ km)
Ceiling: unknown
Clouds: missing
Weather: NSW  (no significant weather)
Text: PROB40
Forecast period: 2000 UTC 21 April 2021 to 0000 UTC 22 April 2021
Forecast type: TEMPORARY: The following changes expected for less than half the time period
Visibility: missing
Ceiling: 3000 feet AGL
Clouds: broken clouds at 3000 feet AGL
Weather: -SHRA  (light rain showers)
Text: TEMPO 2120/2124 -SHRA BKN030CB
Forecast period: 0000 to 0600 UTC 22 April 2021
Forecast type: TEMPORARY: The following changes expected for less than half the time period
Visibility: 2.49 miles (4.01 km)
Ceiling: 1200 feet AGL
Clouds: broken clouds at 1200 feet AGL
broken clouds at 2000 feet AGL
Weather: RA BR  (moderate rain, mist)
Text: PROB40
Forecast period: 0700 to 1200 UTC 22 April 2021
Forecast type: TEMPORARY: The following changes expected for less than half the time period
Winds: from the W (270 degrees) at 17 MPH (15 knots; 7.7 m/s)
gusting to 29 MPH (25 knots; 12.9 m/s)
Visibility: missing
Ceiling: unknown
Clouds: missing
Weather: no significant weather forecast for this period